createdAt,value
2019-04-23T00:00:17.056Z,5.00
2019-04-23T00:01:25.469Z,5.10
2019-04-23T00:03:06.936Z,5.40
2019-04-23T00:06:07.330Z,5.00
2019-04-23T00:08:52.195Z,5.10
2019-04-23T00:09:47.050Z,5.10
2019-04-23T00:11:51.747Z,5.20
2019-04-23T00:12:44.046Z,5.10
2019-04-23T00:14:38.006Z,5.30
2019-04-23T00:15:26.642Z,5.10
2019-04-23T00:17:30.464Z,5.00
2019-04-23T00:18:30.153Z,5.90
2019-04-23T00:20:14.405Z,5.70
2019-04-23T00:21:23.498Z,5.70
2019-04-23T00:23:10.681Z,5.70
2019-04-23T00:24:17.464Z,5.30
2019-04-23T00:27:17.067Z,5.70
2019-04-23T00:28:58.851Z,6.00
2019-04-23T00:29:57.630Z,5.50
2019-04-23T00:31:57.632Z,5.50
2019-04-23T00:32:51.645Z,5.80
2019-04-23T00:33:46.446Z,5.00
2019-04-23T00:35:16.017Z,5.70
2019-04-23T00:35:48.664Z,5.50
2019-04-23T00:37:01.585Z,5.60
2019-04-23T00:38:06.569Z,5.70
2019-04-23T00:38:44.974Z,5.70
2019-04-23T00:39:49.953Z,5.60
2019-04-23T00:42:08.291Z,5.80
2019-04-23T00:42:47.785Z,5.60
2019-04-23T00:43:48.613Z,5.90
2019-04-23T00:46:46.557Z,5.90
2019-04-23T00:48:52.237Z,6.30
2019-04-23T00:49:51.684Z,6.20
2019-04-23T00:50:52.972Z,6.50
2019-04-23T00:52:07.013Z,6.30
2019-04-23T00:52:48.737Z,6.50
2019-04-23T00:53:43.987Z,6.50
2019-04-23T00:54:49.038Z,6.40
2019-04-23T00:55:47.580Z,6.10
2019-04-23T00:57:48.739Z,6.50
2019-04-23T00:58:48.025Z,6.10
2019-04-23T00:59:53.613Z,6.20
2019-04-23T01:00:47.315Z,5.90
2019-04-23T01:01:49.687Z,6.10
2019-04-23T01:03:48.368Z,6.30
2019-04-23T01:04:47.674Z,6.00
2019-04-23T01:05:48.885Z,5.90
2019-04-23T01:06:51.195Z,6.40
2019-04-23T01:07:47.477Z,6.30
2019-04-23T01:08:49.801Z,5.80
2019-04-23T01:09:54.239Z,6.10
2019-04-23T01:10:52.362Z,6.50
2019-04-23T01:11:44.884Z,6.40
2019-04-23T01:14:50.062Z,6.40
2019-04-23T01:15:46.761Z,6.30
2019-04-23T01:16:42.449Z,6.20
2019-04-23T01:17:47.234Z,6.50
2019-04-23T01:20:08.460Z,6.40
2019-04-23T01:20:50.195Z,6.70
2019-04-23T01:21:26.455Z,6.20
2019-04-23T01:22:25.203Z,6.20
2019-04-23T01:23:33.735Z,5.90
2019-04-23T01:24:28.881Z,6.60
2019-04-23T01:25:39.467Z,6.40
2019-04-23T01:26:50.370Z,6.50
2019-04-23T01:28:03.950Z,6.60
2019-04-23T01:28:55.940Z,6.20
2019-04-23T01:29:52.413Z,6.60
2019-04-23T01:30:57.087Z,6.40
2019-04-23T01:31:52.719Z,6.30
2019-04-23T01:32:48.411Z,6.40
2019-04-23T01:33:53.161Z,6.10
2019-04-23T01:35:05.098Z,6.60
2019-04-23T01:36:04.584Z,6.30
2019-04-23T01:36:54.129Z,6.70
2019-04-23T01:37:47.809Z,6.10
2019-04-23T01:39:08.515Z,6.60
2019-04-23T01:39:52.905Z,6.60
2019-04-23T01:41:07.698Z,6.50
2019-04-23T01:41:58.321Z,6.40
2019-04-23T01:43:51.261Z,6.60
2019-04-23T01:45:01.395Z,6.20
2019-04-23T01:45:44.068Z,6.50
2019-04-23T01:47:49.604Z,6.30
2019-04-23T01:48:55.178Z,6.30
2019-04-23T01:50:01.978Z,6.80
2019-04-23T01:51:55.219Z,6.70
2019-04-23T01:52:52.704Z,6.30
2019-04-23T01:53:49.691Z,6.30
2019-04-23T01:54:52.842Z,6.10
2019-04-23T01:55:51.141Z,6.60
2019-04-23T01:56:47.160Z,6.60
2019-04-23T01:57:58.906Z,6.20
2019-04-23T01:59:09.452Z,6.50
2019-04-23T01:59:54.659Z,6.30
2019-04-23T02:02:08.707Z,6.40
2019-04-23T02:02:55.687Z,6.40
2019-04-23T02:03:54.406Z,6.80
2019-04-23T02:04:55.792Z,6.50
2019-04-23T02:05:48.057Z,6.30
2019-04-23T02:06:51.746Z,6.40
2019-04-23T02:08:53.579Z,6.50
2019-04-23T02:09:55.304Z,6.70
2019-04-23T02:11:05.367Z,6.70
2019-04-23T02:11:55.238Z,6.60
2019-04-23T02:12:57.043Z,6.70
2019-04-23T02:13:55.397Z,6.50
2019-04-23T02:14:49.918Z,6.60
2019-04-23T02:15:49.513Z,6.70
2019-04-23T02:16:50.284Z,6.60
2019-04-23T02:17:53.236Z,6.40
2019-04-23T02:18:56.228Z,6.10
2019-04-23T02:19:59.628Z,6.50
2019-04-23T02:20:47.897Z,6.50
2019-04-23T02:21:52.792Z,6.70
2019-04-23T02:22:54.314Z,6.40
2019-04-23T02:23:52.171Z,6.40
2019-04-23T02:24:55.912Z,6.60
2019-04-23T02:27:05.814Z,6.40
2019-04-23T02:29:14.641Z,6.40
2019-04-23T02:31:14.760Z,6.40
2019-04-23T02:33:23.818Z,6.50
2019-04-23T02:36:54.478Z,6.80
2019-04-23T02:38:00.652Z,6.90
2019-04-23T02:41:04.761Z,6.60
2019-04-23T02:44:04.267Z,6.40
2019-04-23T02:44:56.323Z,6.60
2019-04-23T02:47:01.531Z,6.30
2019-04-23T02:48:01.476Z,6.70
2019-04-23T02:49:00.021Z,6.50
2019-04-23T02:52:56.123Z,6.40
2019-04-23T02:54:03.994Z,6.60
2019-04-23T02:56:12.229Z,6.50
2019-04-23T02:57:11.835Z,6.90
2019-04-23T02:58:11.077Z,6.40
2019-04-23T03:01:19.530Z,6.60
2019-04-23T03:02:12.053Z,6.60
2019-04-23T03:03:59.824Z,6.20
2019-04-23T03:05:57.239Z,6.70
2019-04-23T03:07:15.948Z,6.10
2019-04-23T03:07:52.758Z,6.60
2019-04-23T03:12:00.736Z,6.30
2019-04-23T03:12:59.180Z,6.20
2019-04-23T03:14:59.180Z,6.60
2019-04-23T03:16:06.544Z,6.30
2019-04-23T03:17:03.357Z,6.70
2019-04-23T03:17:59.149Z,6.50
2019-04-23T03:19:59.045Z,6.70
2019-04-23T03:21:07.498Z,6.80
2019-04-23T03:23:03.082Z,6.80
2019-04-23T03:24:04.427Z,6.50
2019-04-23T03:25:12.963Z,6.50
2019-04-23T03:25:57.037Z,6.20
2019-04-23T03:27:08.137Z,6.40
2019-04-23T03:27:50.211Z,6.60
2019-04-23T03:35:00.205Z,6.30
2019-04-23T03:41:11.903Z,6.80
2019-04-23T03:41:53.891Z,6.60
2019-04-23T03:43:01.331Z,6.40
2019-04-23T03:44:01.487Z,6.50
2019-04-23T03:44:57.665Z,6.50
2019-04-23T03:46:16.110Z,6.90
2019-04-23T03:46:51.441Z,6.60
2019-04-23T03:47:56.198Z,6.20
2019-04-23T03:50:43.613Z,6.70
2019-04-23T03:52:46.825Z,6.70
2019-04-23T03:54:08.118Z,6.80
2019-04-23T03:56:02.353Z,6.70
2019-04-23T03:57:12.524Z,7.20
2019-04-23T03:57:58.078Z,6.50
2019-04-23T03:59:03.461Z,6.70
2019-04-23T04:00:12.467Z,6.50
2019-04-23T04:02:04.446Z,6.90
2019-04-23T04:04:44.589Z,7.20
2019-04-23T04:05:57.948Z,6.80
2019-04-23T04:07:08.433Z,6.80
2019-04-23T04:08:06.818Z,6.50
2019-04-23T04:09:13.250Z,6.30
2019-04-23T04:11:09.973Z,7.00
2019-04-23T04:11:52.248Z,6.50
2019-04-23T04:12:46.065Z,6.70
2019-04-23T04:14:04.752Z,6.70
2019-04-23T04:14:59.164Z,6.70
2019-04-23T04:18:01.727Z,6.50
2019-04-23T04:18:57.274Z,6.80
2019-04-23T04:23:07.805Z,6.90
2019-04-23T04:24:05.182Z,6.80
2019-04-23T04:24:49.160Z,7.30
2019-04-23T04:27:01.738Z,6.60
2019-04-23T04:28:12.329Z,6.60
2019-04-23T04:29:00.835Z,6.60
2019-04-23T04:29:54.877Z,6.50
2019-04-23T04:30:49.211Z,6.80
2019-04-23T04:31:52.198Z,6.50
2019-04-23T04:33:16.681Z,6.50
2019-04-23T04:35:12.938Z,6.40
2019-04-23T04:36:13.196Z,6.40
2019-04-23T04:37:16.751Z,6.70
2019-04-23T04:38:05.744Z,6.70
2019-04-23T04:38:59.094Z,6.40
2019-04-23T04:44:54.707Z,6.30
2019-04-23T04:45:20.819Z,6.40
2019-04-23T04:46:04.800Z,6.30
2019-04-23T04:46:50.467Z,6.60
2019-04-23T04:47:44.946Z,6.50
2019-04-23T04:48:56.173Z,6.50
2019-04-23T04:49:55.800Z,6.60
2019-04-23T04:52:15.638Z,6.20
2019-04-23T04:54:06.429Z,6.30
2019-04-23T04:54:44.562Z,6.40
2019-04-23T04:55:54.824Z,6.30
2019-04-23T04:56:56.602Z,6.40
2019-04-23T04:57:52.310Z,6.50
2019-04-23T04:58:59.616Z,6.30
2019-04-23T05:00:05.593Z,6.60
2019-04-23T05:01:06.211Z,6.30
2019-04-23T05:02:01.542Z,6.70
2019-04-23T05:03:58.245Z,6.30
2019-04-23T05:04:59.648Z,6.20
2019-04-23T05:06:04.940Z,5.90
2019-04-23T05:07:02.567Z,6.50
2019-04-23T05:08:11.463Z,6.60
2019-04-23T05:08:56.604Z,6.30
2019-04-23T05:09:57.618Z,6.10
2019-04-23T05:12:01.541Z,6.50
2019-04-23T05:13:06.725Z,6.50
2019-04-23T05:16:52.988Z,6.30
2019-04-23T05:19:51.346Z,6.20
2019-04-23T05:20:53.191Z,6.20
2019-04-23T05:21:54.483Z,6.10
2019-04-23T05:23:02.555Z,5.90
2019-04-23T05:23:50.435Z,5.80
2019-04-23T05:24:46.501Z,6.00
2019-04-23T05:25:46.366Z,5.80
2019-04-23T05:26:37.562Z,6.10
2019-04-23T05:27:53.609Z,5.70
2019-04-23T05:28:55.686Z,6.10
2019-04-23T05:29:48.431Z,5.90
2019-04-23T05:31:42.121Z,5.80
2019-04-23T05:32:48.944Z,6.20
2019-04-23T05:33:46.463Z,5.80
2019-04-23T05:34:46.681Z,5.70
2019-04-23T05:36:06.221Z,6.00
2019-04-23T05:36:45.693Z,5.90
2019-04-23T05:38:02.439Z,5.90
2019-04-23T05:39:45.513Z,6.10
2019-04-23T05:41:45.587Z,5.70
2019-04-23T05:42:47.332Z,5.90
2019-04-23T05:43:46.470Z,5.50
2019-04-23T05:44:50.276Z,5.80
2019-04-23T05:45:46.755Z,5.20
2019-04-23T05:46:44.880Z,5.00
2019-04-23T05:47:52.042Z,5.20
2019-04-23T05:48:45.612Z,5.30
2019-04-23T05:49:47.702Z,5.30
2019-04-23T05:50:59.274Z,5.10
2019-04-23T05:51:50.423Z,4.80
2019-04-23T05:52:53.109Z,5.10
2019-04-23T05:53:47.220Z,5.10
2019-04-23T05:54:52.777Z,5.10
2019-04-23T05:55:49.393Z,4.90
2019-04-23T05:56:44.294Z,5.10
2019-04-23T05:57:42.704Z,5.10
2019-04-23T06:01:05.702Z,4.80
2019-04-23T06:01:53.739Z,4.70
2019-04-23T06:02:50.220Z,4.80
2019-04-23T06:03:52.754Z,4.70
2019-04-23T06:04:44.661Z,4.90
2019-04-23T06:05:50.686Z,4.80
2019-04-23T06:08:49.325Z,4.80
2019-04-23T06:09:50.433Z,4.80
2019-04-23T06:10:53.514Z,4.90
2019-04-23T06:11:52.450Z,4.50
2019-04-23T06:12:47.206Z,4.80
2019-04-23T06:13:58.682Z,4.80
2019-04-23T06:14:47.470Z,4.70
2019-04-23T06:15:47.997Z,4.90
2019-04-23T06:17:47.978Z,4.70
2019-04-23T06:18:44.483Z,5.00
2019-04-23T06:19:42.535Z,4.90
2019-04-23T06:20:48.746Z,4.60
2019-04-23T06:23:55.575Z,4.60
2019-04-23T06:24:45.611Z,4.80
2019-04-23T06:26:47.204Z,4.70
2019-04-23T06:27:45.961Z,4.40
2019-04-23T06:28:50.513Z,4.60
2019-04-23T06:29:44.947Z,4.80
2019-04-23T06:30:47.517Z,4.70
2019-04-23T06:32:42.857Z,4.80
2019-04-23T06:33:47.954Z,4.80
2019-04-23T06:34:52.171Z,4.60
2019-04-23T06:35:47.342Z,4.70
2019-04-23T06:36:46.654Z,4.60
2019-04-23T06:38:58.801Z,4.80
2019-04-23T06:41:46.421Z,4.80
2019-04-23T06:42:49.306Z,4.40
2019-04-23T06:43:56.418Z,4.70
2019-04-23T06:44:45.408Z,4.50
2019-04-23T06:45:57.473Z,4.50
2019-04-23T06:46:50.196Z,4.50
2019-04-23T06:47:42.937Z,4.40
2019-04-23T06:48:40.779Z,4.30
2019-04-23T06:49:49.484Z,4.80
2019-04-23T06:50:51.040Z,4.20
2019-04-23T06:51:52.105Z,4.30
2019-04-23T06:52:41.849Z,4.70
2019-04-23T06:53:43.498Z,4.70
2019-04-23T06:54:47.744Z,4.70
2019-04-23T06:55:42.524Z,4.50
2019-04-23T06:56:54.378Z,4.40
2019-04-23T06:57:42.614Z,4.50
2019-04-23T06:58:43.958Z,4.60
2019-04-23T06:59:41.272Z,4.30
2019-04-23T07:00:48.847Z,4.40
2019-04-23T07:01:54.449Z,4.60
2019-04-23T07:02:44.293Z,4.70
2019-04-23T07:04:55.441Z,4.50
2019-04-23T07:05:57.873Z,4.20
2019-04-23T07:06:48.750Z,4.60
2019-04-23T07:07:50.032Z,4.40
2019-04-23T07:09:07.845Z,4.40
2019-04-23T07:09:44.010Z,4.20
2019-04-23T07:10:54.311Z,4.30
2019-04-23T07:11:39.037Z,4.40
2019-04-23T07:13:54.612Z,4.40
2019-04-23T07:15:46.415Z,4.40
2019-04-23T07:16:57.119Z,4.50
2019-04-23T07:17:41.019Z,4.60
2019-04-23T07:19:02.708Z,4.40
2019-04-23T07:19:44.967Z,4.70
2019-04-23T07:20:41.811Z,4.70
2019-04-23T07:21:41.737Z,4.60
2019-04-23T07:22:42.805Z,4.60
2019-04-23T07:23:54.674Z,4.70
2019-04-23T07:24:47.215Z,4.50
2019-04-23T07:25:47.049Z,4.90
2019-04-23T07:27:43.319Z,4.70
2019-04-23T07:28:49.855Z,4.70
2019-04-23T07:29:55.615Z,4.60
2019-04-23T07:30:52.480Z,4.50
2019-04-23T07:31:48.338Z,4.40
2019-04-23T07:32:43.386Z,4.80
2019-04-23T07:33:52.808Z,4.50
2019-04-23T07:34:52.651Z,4.60
2019-04-23T07:35:47.619Z,4.90
2019-04-23T07:36:45.388Z,4.60
2019-04-23T07:37:50.206Z,4.70
2019-04-23T07:38:56.510Z,4.30
2019-04-23T07:39:58.968Z,4.70
2019-04-23T07:40:41.632Z,4.50
2019-04-23T07:41:47.864Z,4.50
2019-04-23T07:42:42.170Z,4.30
2019-04-23T07:43:49.521Z,4.40
2019-04-23T07:44:52.011Z,4.60
2019-04-23T07:45:45.068Z,4.80
2019-04-23T07:46:52.839Z,4.40
2019-04-23T07:47:40.110Z,4.40
2019-04-23T07:48:43.980Z,4.70
2019-04-23T07:49:50.625Z,4.50
2019-04-23T07:51:03.319Z,4.50
2019-04-23T07:51:51.694Z,4.60
2019-04-23T07:52:56.791Z,4.10
2019-04-23T07:53:46.445Z,4.40
2019-04-23T07:54:44.195Z,4.30
2019-04-23T07:56:41.934Z,4.60
2019-04-23T07:57:52.154Z,4.40
2019-04-23T07:58:39.330Z,4.90
2019-04-23T07:59:52.166Z,4.40
2019-04-23T08:00:45.158Z,4.50
2019-04-23T08:01:39.236Z,4.70
2019-04-23T08:02:44.011Z,4.50
2019-04-23T08:03:43.655Z,4.70
2019-04-23T08:04:54.112Z,4.90
2019-04-23T08:05:44.111Z,4.60
2019-04-23T08:06:45.987Z,4.40
2019-04-23T08:07:44.079Z,4.30
2019-04-23T08:08:47.416Z,4.70
2019-04-23T08:09:47.761Z,4.90
2019-04-23T08:11:14.351Z,4.70
2019-04-23T08:11:49.339Z,4.60
2019-04-23T08:12:46.982Z,4.70
2019-04-23T08:14:47.543Z,4.60
2019-04-23T08:16:38.390Z,4.50
2019-04-23T08:17:42.785Z,4.00
2019-04-23T08:18:50.970Z,4.60
2019-04-23T08:19:59.599Z,4.30
2019-04-23T08:21:46.369Z,4.50
2019-04-23T08:22:47.499Z,4.50
2019-04-23T08:23:49.604Z,4.50
2019-04-23T08:24:50.562Z,4.60
2019-04-23T08:25:52.683Z,4.80
2019-04-23T08:26:50.206Z,4.40
2019-04-23T08:27:42.050Z,4.40
2019-04-23T08:28:58.491Z,4.30
2019-04-23T08:29:40.794Z,4.50
2019-04-23T08:30:46.552Z,4.80
2019-04-23T08:31:43.842Z,4.40
2019-04-23T08:32:44.033Z,4.50
2019-04-23T08:33:51.520Z,4.40
2019-04-23T08:34:47.846Z,4.50
2019-04-23T08:35:43.288Z,4.70
2019-04-23T08:38:45.005Z,4.70
2019-04-23T08:40:04.307Z,4.50
2019-04-23T08:41:57.680Z,4.40
2019-04-23T08:43:51.754Z,4.40
2019-04-23T08:45:35.415Z,4.50
2019-04-23T08:46:50.974Z,4.50
2019-04-23T08:47:40.245Z,4.70
2019-04-23T08:48:57.581Z,4.70
2019-04-23T08:52:48.386Z,4.70
2019-04-23T08:53:43.083Z,4.60
2019-04-23T08:56:07.287Z,4.60
2019-04-23T08:56:51.886Z,4.60
2019-04-23T08:57:41.274Z,4.60
2019-04-23T08:58:41.576Z,4.70
2019-04-23T08:59:55.671Z,5.20
2019-04-23T09:00:51.830Z,4.80
2019-04-23T09:01:57.939Z,4.90
2019-04-23T09:02:43.875Z,5.10
2019-04-23T09:03:40.796Z,4.90
2019-04-23T09:04:51.925Z,4.90
2019-04-23T09:05:47.692Z,5.10
2019-04-23T09:06:47.874Z,5.50
2019-04-23T09:07:45.083Z,5.20
2019-04-23T09:08:44.367Z,4.70
2019-04-23T09:11:54.383Z,4.80
2019-04-23T09:14:42.113Z,4.90
2019-04-23T09:15:44.581Z,4.60
2019-04-23T09:16:36.147Z,4.80
2019-04-23T09:17:47.839Z,5.00
2019-04-23T09:19:31.131Z,4.90
2019-04-23T09:20:32.761Z,4.90
2019-04-23T09:23:35.119Z,4.90
2019-04-23T09:25:21.976Z,4.90
2019-04-23T09:26:06.146Z,4.80
2019-04-23T09:27:22.588Z,4.80
2019-04-23T09:29:30.631Z,5.00
2019-04-23T09:31:18.687Z,5.10
2019-04-23T09:33:13.880Z,4.70
2019-04-23T09:34:09.930Z,5.30
2019-04-23T09:36:14.598Z,4.60
2019-04-23T09:37:19.128Z,4.90
2019-04-23T09:38:14.344Z,5.10
2019-04-23T09:40:27.619Z,6.30
2019-04-23T09:41:22.218Z,5.20
2019-04-23T09:42:27.644Z,4.90
2019-04-23T09:43:15.256Z,5.10
2019-04-23T09:44:42.694Z,5.20
2019-04-23T09:45:17.137Z,5.30
2019-04-23T09:46:17.897Z,5.00
2019-04-23T09:47:34.082Z,5.20
2019-04-23T09:48:11.774Z,5.00
2019-04-23T09:49:22.609Z,5.30
2019-04-23T09:50:15.744Z,5.50
2019-04-23T09:51:17.622Z,4.90
2019-04-23T09:53:24.965Z,5.30
2019-04-23T09:54:21.897Z,4.90
2019-04-23T09:55:23.971Z,5.00
2019-04-23T09:56:14.519Z,5.30
2019-04-23T09:57:14.073Z,5.20
2019-04-23T09:58:11.780Z,5.20
2019-04-23T10:00:16.889Z,5.50
2019-04-23T10:01:20.905Z,5.20
2019-04-23T10:02:06.720Z,5.10
2019-04-23T10:03:04.727Z,5.10
2019-04-23T10:04:00.628Z,5.30
2019-04-23T10:05:03.296Z,4.90
2019-04-23T10:05:57.243Z,5.50
2019-04-23T10:07:02.063Z,5.10
2019-04-23T10:08:00.158Z,5.10
2019-04-23T10:08:53.813Z,5.60
2019-04-23T10:09:49.632Z,5.10
2019-04-23T10:10:49.199Z,5.20
2019-04-23T10:11:49.315Z,5.40
2019-04-23T10:12:48.303Z,5.30
2019-04-23T10:13:48.363Z,5.20
2019-04-23T10:14:57.705Z,5.20
2019-04-23T10:15:49.625Z,5.40
2019-04-23T10:16:49.245Z,4.90
2019-04-23T10:17:47.747Z,5.30
2019-04-23T10:18:49.113Z,5.10
2019-04-23T10:19:48.666Z,5.30
2019-04-23T10:20:48.722Z,5.10
2019-04-23T10:21:49.145Z,5.30
2019-04-23T10:22:48.271Z,5.20
2019-04-23T10:23:49.262Z,5.50
2019-04-23T10:24:48.864Z,5.30
2019-04-23T10:25:48.060Z,5.40
2019-04-23T10:26:48.188Z,5.30
2019-04-23T10:27:53.271Z,5.20
2019-04-23T10:28:47.767Z,5.50
2019-04-23T10:29:47.923Z,5.30
2019-04-23T10:30:48.948Z,5.30
2019-04-23T10:31:47.600Z,5.50
2019-04-23T10:32:47.733Z,5.50
2019-04-23T10:33:48.208Z,5.40
2019-04-23T10:34:57.862Z,5.70
2019-04-23T10:35:56.434Z,5.30
2019-04-23T10:36:47.552Z,5.20
2019-04-23T10:37:54.672Z,5.80
2019-04-23T10:38:58.634Z,5.60
2019-04-23T10:39:54.030Z,5.50
2019-04-23T10:40:50.114Z,5.50
2019-04-23T10:41:48.808Z,5.00
2019-04-23T10:42:48.426Z,5.70
2019-04-23T10:43:50.297Z,5.70
2019-04-23T10:44:50.424Z,5.80
2019-04-23T10:46:07.920Z,5.60
2019-04-23T10:47:15.179Z,5.70
2019-04-23T10:48:21.678Z,5.30
2019-04-23T10:49:31.785Z,5.50
2019-04-23T10:50:18.531Z,5.50
2019-04-23T10:51:18.068Z,5.80
2019-04-23T10:53:26.863Z,5.40
2019-04-23T10:54:35.041Z,5.60
2019-04-23T10:55:22.342Z,5.50
2019-04-23T10:56:18.293Z,5.50
2019-04-23T10:57:31.664Z,5.40
2019-04-23T10:58:15.750Z,5.30
2019-04-23T10:59:19.596Z,5.60
2019-04-23T11:00:22.576Z,5.60
2019-04-23T11:01:21.303Z,5.50
2019-04-23T11:03:39.093Z,5.40
2019-04-23T11:04:33.819Z,5.70
2019-04-23T11:05:17.952Z,5.50
2019-04-23T11:06:26.845Z,5.40
2019-04-23T11:07:28.413Z,5.60
2019-04-23T11:08:20.382Z,5.60
2019-04-23T11:09:38.046Z,5.70
2019-04-23T11:10:15.621Z,5.30
2019-04-23T11:11:25.524Z,5.80
2019-04-23T11:12:28.921Z,5.60
2019-04-23T11:13:17.563Z,5.50
2019-04-23T11:14:23.040Z,5.30
2019-04-23T11:15:28.710Z,5.60
2019-04-23T11:17:21.539Z,5.70
2019-04-23T11:18:02.753Z,5.90
2019-04-23T11:19:15.618Z,5.60
2019-04-23T11:20:25.810Z,5.50
2019-04-23T11:21:20.730Z,5.50
2019-04-23T11:22:42.466Z,5.70
2019-04-23T11:23:17.536Z,5.80
2019-04-23T11:24:34.415Z,6.10
2019-04-23T11:25:29.976Z,5.70
2019-04-23T11:26:26.233Z,5.60
2019-04-23T11:27:25.966Z,5.80
2019-04-23T11:28:22.812Z,5.60
2019-04-23T11:29:19.670Z,5.60
2019-04-23T11:30:25.854Z,5.90
2019-04-23T11:31:23.762Z,5.50
2019-04-23T11:33:16.161Z,5.00
2019-04-23T11:35:24.364Z,5.80
2019-04-23T11:36:43.627Z,5.70
2019-04-23T11:37:24.973Z,5.40
2019-04-23T11:38:44.149Z,5.90
2019-04-23T11:39:17.060Z,5.60
2019-04-23T11:40:15.535Z,5.60
2019-04-23T11:41:22.847Z,5.70
2019-04-23T11:43:23.482Z,5.90
2019-04-23T11:44:22.107Z,5.80
2019-04-23T11:45:27.815Z,5.80
2019-04-23T11:46:32.264Z,6.10
2019-04-23T11:47:32.732Z,5.80
2019-04-23T11:48:32.947Z,5.70
2019-04-23T11:49:26.635Z,5.80
2019-04-23T11:52:21.323Z,5.90
2019-04-23T11:53:22.861Z,6.20
2019-04-23T11:54:17.706Z,5.80
2019-04-23T11:55:29.086Z,5.60
2019-04-23T11:56:32.487Z,5.70
2019-04-23T11:59:29.306Z,5.50
2019-04-23T12:00:26.851Z,6.00
2019-04-23T12:01:38.708Z,5.90
2019-04-23T12:02:19.404Z,5.90
2019-04-23T12:03:11.368Z,6.10
2019-04-23T12:04:19.676Z,5.40
2019-04-23T12:05:21.693Z,6.00
2019-04-23T12:06:16.876Z,6.10
2019-04-23T12:07:17.573Z,6.80
2019-04-23T12:08:26.812Z,6.40
2019-04-23T12:09:26.030Z,6.30
2019-04-23T12:10:26.833Z,5.80
2019-04-23T12:11:39.823Z,5.90
2019-04-23T12:12:17.274Z,5.90
2019-04-23T12:13:21.255Z,6.00
2019-04-23T12:14:24.268Z,5.70
2019-04-23T12:15:23.878Z,6.10
2019-04-23T12:16:20.400Z,5.80
2019-04-23T12:17:18.583Z,6.10
2019-04-23T12:18:19.970Z,6.30
2019-04-23T12:19:44.353Z,5.80
2019-04-23T12:20:33.447Z,5.50
2019-04-23T12:21:20.841Z,6.10
2019-04-23T12:22:22.217Z,5.90
2019-04-23T12:23:25.447Z,5.70
2019-04-23T12:24:27.113Z,5.70
2019-04-23T12:26:22.850Z,6.30
2019-04-23T12:27:25.931Z,6.00
2019-04-23T12:28:17.939Z,5.70
2019-04-23T12:29:20.313Z,5.90
2019-04-23T12:30:20.825Z,6.00
2019-04-23T12:31:17.737Z,5.80
2019-04-23T12:32:35.596Z,5.90
2019-04-23T12:33:24.605Z,5.70
2019-04-23T12:34:20.647Z,6.10
2019-04-23T12:35:19.447Z,5.90
2019-04-23T12:36:26.240Z,6.10
2019-04-23T12:37:26.696Z,6.10
2019-04-23T12:38:25.680Z,5.90
2019-04-23T12:39:18.942Z,6.10
2019-04-23T12:41:12.989Z,6.40
2019-04-23T12:42:38.750Z,6.20
2019-04-23T12:43:14.487Z,6.10
2019-04-23T12:44:16.208Z,6.70
2019-04-23T12:45:23.396Z,6.60
2019-04-23T12:46:08.872Z,7.60
2019-04-23T12:47:27.199Z,6.20
2019-04-23T12:48:32.263Z,6.10
2019-04-23T12:49:34.699Z,6.40
2019-04-23T12:50:41.875Z,6.70
2019-04-23T12:51:24.351Z,6.10
2019-04-23T12:52:17.055Z,6.20
2019-04-23T12:53:19.908Z,6.40
2019-04-23T12:54:21.546Z,6.30
2019-04-23T12:56:17.564Z,6.40
2019-04-23T12:57:17.431Z,6.40
2019-04-23T12:58:15.719Z,6.30
2019-04-23T12:59:20.277Z,6.90
2019-04-23T13:01:13.528Z,6.70
2019-04-23T13:02:25.723Z,6.20
2019-04-23T13:03:16.980Z,6.80
2019-04-23T13:04:17.874Z,6.30
2019-04-23T13:05:15.776Z,6.50
2019-04-23T13:06:10.332Z,7.10
2019-04-23T13:07:17.502Z,6.50
2019-04-23T13:08:33.284Z,6.60
2019-04-23T13:09:26.153Z,6.10
2019-04-23T13:10:15.620Z,6.60
2019-04-23T13:11:17.642Z,6.60
2019-04-23T13:12:20.297Z,6.60
2019-04-23T13:14:09.870Z,6.80
2019-04-23T13:16:18.074Z,6.40
2019-04-23T13:17:38.069Z,6.70
2019-04-23T13:18:15.344Z,6.30
2019-04-23T13:19:23.926Z,6.90
2019-04-23T13:20:19.454Z,6.30
2019-04-23T13:21:39.967Z,6.80
2019-04-23T13:22:21.529Z,6.80
2019-04-23T13:23:16.901Z,6.40
2019-04-23T13:24:09.529Z,6.80
2019-04-23T13:25:18.107Z,6.80
2019-04-23T13:26:04.123Z,6.50
2019-04-23T13:27:23.923Z,6.40
2019-04-23T13:28:18.732Z,6.90
2019-04-23T13:29:24.584Z,6.60
2019-04-23T13:30:17.160Z,6.60
2019-04-23T13:31:12.525Z,6.70
2019-04-23T13:32:14.926Z,6.90
2019-04-23T13:33:28.238Z,6.70
2019-04-23T13:35:25.561Z,6.50
2019-04-23T13:38:08.950Z,6.60
2019-04-23T13:39:02.382Z,7.10
2019-04-23T13:41:01.112Z,6.60
2019-04-23T13:41:58.581Z,7.10
2019-04-23T13:43:42.543Z,7.10
2019-04-23T13:44:52.052Z,6.70
2019-04-23T13:46:35.757Z,6.60
2019-04-23T13:47:53.284Z,6.40
2019-04-23T13:48:36.338Z,6.80
2019-04-23T13:49:45.283Z,6.50
2019-04-23T13:51:39.781Z,6.80
2019-04-23T13:55:04.371Z,6.40
2019-04-23T13:55:37.919Z,6.70
2019-04-23T13:57:14.438Z,6.60
2019-04-23T13:58:46.355Z,6.80
2019-04-23T13:59:46.860Z,6.40
2019-04-23T14:00:52.306Z,6.60
2019-04-23T14:01:54.390Z,6.30
2019-04-23T14:04:44.754Z,6.90
2019-04-23T14:05:43.232Z,6.60
2019-04-23T14:06:46.454Z,6.80
2019-04-23T14:07:48.450Z,6.60
2019-04-23T14:08:47.206Z,6.40
2019-04-23T14:09:47.173Z,6.50
2019-04-23T14:10:41.615Z,6.20
2019-04-23T14:11:30.912Z,6.50
2019-04-23T14:12:53.442Z,6.60
2019-04-23T14:13:52.114Z,6.40
2019-04-23T14:14:47.813Z,6.50
2019-04-23T14:15:44.973Z,6.70
2019-04-23T14:18:56.087Z,6.80
2019-04-23T14:19:41.784Z,6.50
2019-04-23T14:20:40.377Z,6.20
2019-04-23T14:21:37.462Z,6.40
2019-04-23T14:23:59.141Z,6.30
2019-04-23T14:25:02.051Z,5.80
2019-04-23T14:25:50.722Z,5.90
2019-04-23T14:27:51.910Z,5.70
2019-04-23T14:28:55.690Z,6.00
2019-04-23T14:29:48.314Z,5.70
2019-04-23T14:30:46.765Z,5.90
2019-04-23T14:31:36.868Z,6.00
2019-04-23T14:33:51.255Z,5.40
2019-04-23T14:34:43.893Z,6.00
2019-04-23T14:35:40.519Z,5.90
2019-04-23T14:36:42.858Z,6.10
2019-04-23T14:37:52.799Z,6.10
2019-04-23T14:39:43.732Z,5.50
2019-04-23T14:40:43.127Z,5.80
2019-04-23T14:42:03.547Z,5.90
2019-04-23T14:43:48.757Z,6.00
2019-04-23T14:44:44.461Z,5.60
2019-04-23T14:46:13.741Z,6.00
2019-04-23T14:46:49.923Z,6.20
2019-04-23T14:48:46.720Z,5.60
2019-04-23T14:49:45.547Z,5.70
2019-04-23T14:50:44.264Z,5.90
2019-04-23T14:52:50.650Z,5.90
2019-04-23T14:53:40.533Z,5.40
2019-04-23T14:55:15.362Z,6.10
2019-04-23T14:55:50.921Z,6.30
2019-04-23T14:57:03.090Z,6.10
2019-04-23T14:58:02.590Z,6.00
2019-04-23T14:59:37.709Z,5.90
2019-04-23T15:00:54.043Z,6.00
2019-04-23T15:02:44.616Z,5.80
2019-04-23T15:03:49.009Z,6.10
2019-04-23T15:04:39.743Z,5.90
2019-04-23T15:05:45.890Z,6.40
2019-04-23T15:06:43.255Z,6.10
2019-04-23T15:09:53.277Z,6.60
2019-04-23T15:11:05.249Z,6.50
2019-04-23T15:11:44.107Z,6.20
2019-04-23T15:14:46.543Z,6.70
2019-04-23T15:15:51.450Z,5.90
2019-04-23T15:17:40.136Z,6.20
2019-04-23T15:18:53.358Z,6.20
2019-04-23T15:19:40.170Z,6.50
2019-04-23T15:20:41.442Z,6.40
2019-04-23T15:21:53.716Z,6.10
2019-04-23T15:22:53.349Z,6.30
2019-04-23T15:23:51.492Z,6.20
2019-04-23T15:24:37.747Z,6.20
2019-04-23T15:25:43.921Z,6.60
2019-04-23T15:28:17.486Z,6.50
2019-04-23T15:29:27.488Z,6.90
2019-04-23T15:30:34.110Z,6.30
2019-04-23T15:31:42.831Z,6.60
2019-04-23T15:32:44.446Z,6.20
2019-04-23T15:33:49.168Z,6.50
2019-04-23T15:34:45.413Z,6.20
2019-04-23T15:37:58.375Z,6.70
2019-04-23T15:39:42.945Z,6.80
2019-04-23T15:41:01.908Z,6.30
2019-04-23T15:41:49.860Z,6.50
2019-04-23T15:42:43.628Z,6.30
2019-04-23T15:43:40.449Z,5.90
2019-04-23T15:44:40.721Z,6.30
2019-04-23T15:46:39.123Z,6.40
2019-04-23T15:47:39.856Z,6.50
2019-04-23T15:48:42.848Z,6.50
2019-04-23T15:50:37.196Z,6.40
2019-04-23T15:51:45.108Z,6.50
2019-04-23T15:52:47.842Z,6.60
2019-04-23T15:53:35.237Z,6.60
2019-04-23T15:54:43.349Z,6.70
2019-04-23T15:55:49.180Z,6.90
2019-04-23T15:56:44.615Z,6.60
2019-04-23T15:58:53.712Z,7.00
2019-04-23T15:59:42.144Z,6.60
2019-04-23T16:00:38.429Z,6.70
2019-04-23T16:02:10.801Z,6.70
2019-04-23T16:03:12.908Z,6.80
2019-04-23T16:04:12.030Z,7.00
2019-04-23T16:05:12.409Z,6.90
2019-04-23T16:06:13.599Z,6.70
2019-04-23T16:07:16.843Z,7.10
2019-04-23T16:08:48.061Z,6.80
2019-04-23T16:09:36.004Z,6.80
2019-04-23T16:10:37.732Z,7.20
2019-04-23T16:11:47.995Z,6.70
2019-04-23T16:12:41.629Z,7.00
2019-04-23T16:13:50.741Z,6.90
2019-04-23T16:14:41.127Z,7.00
2019-04-23T16:15:46.180Z,7.30
2019-04-23T16:16:55.185Z,7.30
2019-04-23T16:18:08.137Z,7.30
2019-04-23T16:19:57.800Z,7.70
2019-04-23T16:21:47.338Z,7.20
2019-04-23T16:22:36.955Z,7.10
2019-04-23T16:23:42.325Z,7.30
2019-04-23T16:24:35.857Z,7.30
2019-04-23T16:25:36.210Z,7.30
2019-04-23T16:27:35.483Z,7.30
2019-04-23T16:29:01.192Z,7.50
2019-04-23T16:30:00.257Z,7.50
2019-04-23T16:30:34.701Z,7.70
2019-04-23T16:31:40.239Z,7.30